sensor_id;sensor_type;location;lat;lon;timestamp;pressure;altitude;pressure_sealevel;temperature;humidity
71559;BME280;59382;43.852;25.952;2023-05-24T00:01:16;100888.81;;;21.79;54.27
71559;BME280;59382;43.852;25.952;2023-05-24T00:03:50;100916.25;;;21.89;54.05
71559;BME280;59382;43.852;25.952;2023-05-24T00:06:17;100913.75;;;21.92;54.38
71559;BME280;59382;43.852;25.952;2023-05-24T00:08:42;100913.47;;;21.94;54.38
71559;BME280;59382;43.852;25.952;2023-05-24T00:11:11;100912.69;;;21.93;54.36
71559;BME280;59382;43.852;25.952;2023-05-24T00:13:36;100894.84;;;21.86;54.28
71559;BME280;59382;43.852;25.952;2023-05-24T00:16:02;100911.84;;;21.93;54.28
71559;BME280;59382;43.852;25.952;2023-05-24T00:18:27;100902.25;;;21.90;54.48
71559;BME280;59382;43.852;25.952;2023-05-24T00:20:56;100893.75;;;21.82;54.60
71559;BME280;59382;43.852;25.952;2023-05-24T00:23:23;100889.38;;;21.76;54.45
71559;BME280;59382;43.852;25.952;2023-05-24T00:25:50;100877.56;;;21.70;54.49
71559;BME280;59382;43.852;25.952;2023-05-24T00:28:16;100885.53;;;21.67;54.70
71559;BME280;59382;43.852;25.952;2023-05-24T00:30:41;100888.81;;;21.69;54.73
71559;BME280;59382;43.852;25.952;2023-05-24T00:33:07;100875.13;;;21.59;54.85
71559;BME280;59382;43.852;25.952;2023-05-24T00:35:32;100878.41;;;21.61;54.63
71559;BME280;59382;43.852;25.952;2023-05-24T00:37:58;100889.38;;;21.66;54.61
71559;BME280;59382;43.852;25.952;2023-05-24T00:40:23;100883.88;;;21.66;54.31
71559;BME280;59382;43.852;25.952;2023-05-24T00:42:49;100896.25;;;21.63;54.29
71559;BME280;59382;43.852;25.952;2023-05-24T00:45:14;100888.88;;;21.59;54.28
71559;BME280;59382;43.852;25.952;2023-05-24T00:47:40;100899.84;;;21.59;54.06
71559;BME280;59382;43.852;25.952;2023-05-24T00:50:07;100893.81;;;21.57;54.15
71559;BME280;59382;43.852;25.952;2023-05-24T00:52:35;100897.94;;;21.54;54.26
71559;BME280;59382;43.852;25.952;2023-05-24T00:55:01;100888.91;;;21.44;54.13
71559;BME280;59382;43.852;25.952;2023-05-24T00:57:27;100898.78;;;21.45;54.34
71559;BME280;59382;43.852;25.952;2023-05-24T00:59:54;100902.88;;;21.47;54.12
71559;BME280;59382;43.852;25.952;2023-05-24T01:02:20;100899.34;;;21.42;54.37
71559;BME280;59382;43.852;25.952;2023-05-24T01:04:46;100896.63;;;21.37;54.31
71559;BME280;59382;43.852;25.952;2023-05-24T01:10:16;100890.59;;;21.24;54.25
71559;BME280;59382;43.852;25.952;2023-05-24T01:15:44;100902.94;;;21.22;54.04
71559;BME280;59382;43.852;25.952;2023-05-24T01:21:15;100907.63;;;21.06;53.91
71559;BME280;59382;43.852;25.952;2023-05-24T01:26:39;100913.66;;;21.03;54.00
71559;BME280;59382;43.852;25.952;2023-05-24T01:29:07;100921.34;;;21.01;53.96
71559;BME280;59382;43.852;25.952;2023-05-24T01:31:33;100883.19;;;20.75;53.88
71559;BME280;59382;43.852;25.952;2023-05-24T01:33:59;100907.59;;;20.86;54.14
71559;BME280;59382;43.852;25.952;2023-05-24T01:36:25;100920.47;;;20.91;54.19
71559;BME280;59382;43.852;25.952;2023-05-24T01:38:50;100917.75;;;20.86;53.87
71559;BME280;59382;43.852;25.952;2023-05-24T01:41:37;100904.31;;;20.79;54.00
71559;BME280;59382;43.852;25.952;2023-05-24T01:49:53;100902.66;;;20.78;53.86
71559;BME280;59382;43.852;25.952;2023-05-24T01:52:22;100919.41;;;20.77;53.40
71559;BME280;59382;43.852;25.952;2023-05-24T01:54:51;100925.13;;;20.70;53.62
71559;BME280;59382;43.852;25.952;2023-05-24T01:57:21;100906.50;;;20.57;53.75
71559;BME280;59382;43.852;25.952;2023-05-24T01:59:49;100914.72;;;20.57;53.58
71559;BME280;59382;43.852;25.952;2023-05-24T02:02:15;100918.25;;;20.53;53.57
71559;BME280;59382;43.852;25.952;2023-05-24T02:04:41;100891.38;;;20.35;53.39
71559;BME280;59382;43.852;25.952;2023-05-24T02:07:06;100912.78;;;20.53;53.73
71559;BME280;59382;43.852;25.952;2023-05-24T02:09:32;100927.59;;;20.62;53.28
71559;BME280;59382;43.852;25.952;2023-05-24T02:11:57;100932.25;;;20.61;53.32
71559;BME280;59382;43.852;25.952;2023-05-24T02:14:23;100926.22;;;20.54;53.31
71559;BME280;59382;43.852;25.952;2023-05-24T02:16:49;100916.34;;;20.53;53.16
71559;BME280;59382;43.852;25.952;2023-05-24T02:19:15;100922.38;;;20.55;53.20
71559;BME280;59382;43.852;25.952;2023-05-24T02:21:44;100918.53;;;20.56;53.05
71559;BME280;59382;43.852;25.952;2023-05-24T02:24:10;100918.25;;;20.53;52.72
71559;BME280;59382;43.852;25.952;2023-05-24T02:26:37;100928.41;;;20.52;52.99
71559;BME280;59382;43.852;25.952;2023-05-24T02:29:02;100925.94;;;20.51;52.91
71559;BME280;59382;43.852;25.952;2023-05-24T02:31:28;100928.41;;;20.47;52.90
71559;BME280;59382;43.852;25.952;2023-05-24T02:33:54;100931.94;;;20.48;53.02
71559;BME280;59382;43.852;25.952;2023-05-24T02:36:20;100917.41;;;20.37;53.06
71559;BME280;59382;43.852;25.952;2023-05-24T02:38:48;100931.69;;;20.44;53.12
71559;BME280;59382;43.852;25.952;2023-05-24T02:41:14;100923.19;;;20.46;52.85
71559;BME280;59382;43.852;25.952;2023-05-24T02:43:46;100913.88;;;20.47;52.96
71559;BME280;59382;43.852;25.952;2023-05-24T02:46:12;100916.91;;;20.50;52.74
71559;BME280;59382;43.852;25.952;2023-05-24T02:48:38;100923.47;;;20.59;52.65
71559;BME280;59382;43.852;25.952;2023-05-24T02:51:04;100921.00;;;20.58;52.51
71559;BME280;59382;43.852;25.952;2023-05-24T02:53:30;100923.47;;;20.59;52.56
71559;BME280;59382;43.852;25.952;2023-05-24T02:55:56;100910.84;;;20.48;52.73
71559;BME280;59382;43.852;25.952;2023-05-24T02:58:22;100902.63;;;20.43;52.69
71559;BME280;59382;43.852;25.952;2023-05-24T03:00:48;100926.22;;;20.54;52.72
71559;BME280;59382;43.852;25.952;2023-05-24T03:03:13;100921.00;;;20.53;52.75
71559;BME280;59382;43.852;25.952;2023-05-24T03:05:39;100907.56;;;20.46;52.75
71559;BME280;59382;43.852;25.952;2023-05-24T03:08:04;100905.66;;;20.52;52.38
71559;BME280;59382;43.852;25.952;2023-05-24T03:10:30;100924.03;;;20.61;52.53
71559;BME280;59382;43.852;25.952;2023-05-24T03:12:56;100938.00;;;20.70;52.39
71559;BME280;59382;43.852;25.952;2023-05-24T03:15:22;100928.41;;;20.62;52.41
71559;BME280;59382;43.852;25.952;2023-05-24T03:17:47;100934.19;;;20.66;52.50
71559;BME280;59382;43.852;25.952;2023-05-24T03:20:13;100924.31;;;20.60;52.28
71559;BME280;59382;43.852;25.952;2023-05-24T03:22:40;100939.13;;;20.69;52.46
71559;BME280;59382;43.852;25.952;2023-05-24T03:25:06;100934.44;;;20.64;52.47
71559;BME280;59382;43.852;25.952;2023-05-24T03:27:33;100920.75;;;20.54;52.49
71559;BME280;59382;43.852;25.952;2023-05-24T03:29:58;100947.63;;;20.67;52.46
71559;BME280;59382;43.852;25.952;2023-05-24T03:32:24;100925.13;;;20.60;52.69
71559;BME280;59382;43.852;25.952;2023-05-24T03:34:50;100911.94;;;20.52;52.56
71559;BME280;59382;43.852;25.952;2023-05-24T03:37:15;100944.31;;;20.65;52.82
71559;BME280;59382;43.852;25.952;2023-05-24T03:39:41;100926.22;;;20.59;52.78
71559;BME280;59382;43.852;25.952;2023-05-24T03:42:06;100935.81;;;20.67;52.64
71559;BME280;59382;43.852;25.952;2023-05-24T03:44:33;100932.81;;;20.68;52.77
71559;BME280;59382;43.852;25.952;2023-05-24T03:46:59;100935.53;;;20.68;52.60
71559;BME280;59382;43.852;25.952;2023-05-24T03:49:24;100940.50;;;20.71;52.88
71559;BME280;59382;43.852;25.952;2023-05-24T03:51:50;100929.00;;;20.69;52.72
71559;BME280;59382;43.852;25.952;2023-05-24T03:54:15;100945.44;;;20.79;52.75
71559;BME280;59382;43.852;25.952;2023-05-24T03:56:42;100944.91;;;20.82;52.74
71559;BME280;59382;43.852;25.952;2023-05-24T03:59:08;100937.19;;;20.74;52.83
71559;BME280;59382;43.852;25.952;2023-05-24T04:01:33;100948.22;;;20.84;52.52
71559;BME280;59382;43.852;25.952;2023-05-24T04:04:02;100945.44;;;20.79;52.64
71559;BME280;59382;43.852;25.952;2023-05-24T04:06:36;100950.69;;;20.86;52.79
71559;BME280;59382;43.852;25.952;2023-05-24T04:09:02;100952.59;;;20.85;52.60
71559;BME280;59382;43.852;25.952;2023-05-24T04:11:30;100967.13;;;20.91;52.42
71559;BME280;59382;43.852;25.952;2023-05-24T04:13:57;100952.84;;;20.84;52.40
71559;BME280;59382;43.852;25.952;2023-05-24T04:16:30;100951.47;;;20.76;52.49
71559;BME280;59382;43.852;25.952;2023-05-24T04:19:01;100953.94;;;20.68;52.84
71559;BME280;59382;43.852;25.952;2023-05-24T04:21:29;100970.38;;;20.63;52.72
71559;BME280;59382;43.852;25.952;2023-05-24T04:24:16;100972.81;;;20.59;52.74
71559;BME280;59382;43.852;25.952;2023-05-24T04:26:41;100956.66;;;20.53;53.05
71559;BME280;59382;43.852;25.952;2023-05-24T04:29:07;100952.53;;;20.50;52.87
71559;BME280;59382;43.852;25.952;2023-05-24T04:31:33;100961.84;;;20.59;52.55
71559;BME280;59382;43.852;25.952;2023-05-24T04:33:58;100956.38;;;20.54;52.79
71559;BME280;59382;43.852;25.952;2023-05-24T04:36:24;100971.47;;;20.62;52.70
71559;BME280;59382;43.852;25.952;2023-05-24T04:38:50;100965.13;;;20.41;52.94
71559;BME280;59382;43.852;25.952;2023-05-24T04:41:18;100959.59;;;20.31;53.19
71559;BME280;59382;43.852;25.952;2023-05-24T04:43:44;100963.97;;;20.27;53.18
71559;BME280;59382;43.852;25.952;2023-05-24T04:46:09;100971.16;;;20.38;53.21
71559;BME280;59382;43.852;25.952;2023-05-24T04:48:35;100980.19;;;20.44;53.15
71559;BME280;59382;43.852;25.952;2023-05-24T04:51:00;100975.28;;;20.51;53.07
71559;BME280;59382;43.852;25.952;2023-05-24T04:53:26;100979.41;;;20.53;52.75
71559;BME280;59382;43.852;25.952;2023-05-24T04:55:52;100978.59;;;20.53;52.86
71559;BME280;59382;43.852;25.952;2023-05-24T04:58:17;100965.69;;;20.48;52.69
71559;BME280;59382;43.852;25.952;2023-05-24T05:00:43;100983.50;;;20.61;53.04
71559;BME280;59382;43.852;25.952;2023-05-24T05:03:09;100972.56;;;20.56;52.63
71559;BME280;59382;43.852;25.952;2023-05-24T05:05:35;100987.66;;;20.68;53.02
71559;BME280;59382;43.852;25.952;2023-05-24T05:08:01;100995.06;;;20.73;52.75
71559;BME280;59382;43.852;25.952;2023-05-24T05:10:28;100982.72;;;20.70;52.96
71559;BME280;59382;43.852;25.952;2023-05-24T05:12:53;101000.03;;;20.81;52.88
71559;BME280;59382;43.852;25.952;2023-05-24T05:15:21;100999.75;;;20.82;52.94
71559;BME280;59382;43.852;25.952;2023-05-24T05:17:47;100990.41;;;20.83;53.20
71559;BME280;59382;43.852;25.952;2023-05-24T05:20:13;100990.44;;;20.88;53.00
71559;BME280;59382;43.852;25.952;2023-05-24T05:22:38;101002.56;;;20.97;53.25
71559;BME280;59382;43.852;25.952;2023-05-24T05:25:04;100984.13;;;20.93;53.64
71559;BME280;59382;43.852;25.952;2023-05-24T05:27:30;100981.44;;;21.08;53.62
71559;BME280;59382;43.852;25.952;2023-05-24T05:29:55;100994.91;;;21.40;53.52
71559;BME280;59382;43.852;25.952;2023-05-24T05:32:21;100998.16;;;21.57;53.31
71559;BME280;59382;43.852;25.952;2023-05-24T05:34:46;100999.25;;;21.71;52.96
71559;BME280;59382;43.852;25.952;2023-05-24T05:37:12;100989.34;;;21.70;52.75
71559;BME280;59382;43.852;25.952;2023-05-24T05:39:38;101011.56;;;22.03;52.47
71559;BME280;59382;43.852;25.952;2023-05-24T05:42:03;101022.22;;;22.20;52.47
71559;BME280;59382;43.852;25.952;2023-05-24T05:44:29;101006.81;;;22.24;52.25
71559;BME280;59382;43.852;25.952;2023-05-24T05:46:54;101021.56;;;22.48;52.27
71559;BME280;59382;43.852;25.952;2023-05-24T05:49:20;101029.75;;;22.63;51.77
71559;BME280;59382;43.852;25.952;2023-05-24T05:51:45;101030.75;;;22.77;51.46
71559;BME280;59382;43.852;25.952;2023-05-24T05:54:11;100997.22;;;22.75;51.30
71559;BME280;59382;43.852;25.952;2023-05-24T05:56:43;101026.88;;;23.21;50.92
71559;BME280;59382;43.852;25.952;2023-05-24T05:59:16;101029.91;;;23.59;50.34
71559;BME280;59382;43.852;25.952;2023-05-24T06:01:42;101022.16;;;23.89;49.64
71559;BME280;59382;43.852;25.952;2023-05-24T06:04:09;101009.47;;;24.17;49.36
71559;BME280;59382;43.852;25.952;2023-05-24T06:06:35;101026.34;;;24.57;48.83
71559;BME280;59382;43.852;25.952;2023-05-24T06:09:01;101036.41;;;24.90;48.02
71559;BME280;59382;43.852;25.952;2023-05-24T06:11:27;101031.22;;;25.21;47.74
71559;BME280;59382;43.852;25.952;2023-05-24T06:13:52;101019.88;;;25.41;47.06
71559;BME280;59382;43.852;25.952;2023-05-24T06:16:18;101031.75;;;25.74;46.25
71559;BME280;59382;43.852;25.952;2023-05-24T06:18:45;101041.75;;;26.02;45.90
71559;BME280;59382;43.852;25.952;2023-05-24T06:21:12;101029.66;;;26.25;45.78
71559;BME280;59382;43.852;25.952;2023-05-24T06:23:38;101035.19;;;26.52;45.23
71559;BME280;59382;43.852;25.952;2023-05-24T06:26:03;101036.94;;;26.75;44.52
71559;BME280;59382;43.852;25.952;2023-05-24T06:28:29;101029.91;;;26.91;44.09
71559;BME280;59382;43.852;25.952;2023-05-24T06:30:54;101039.88;;;27.14;43.84
71559;BME280;59382;43.852;25.952;2023-05-24T06:33:20;101040.19;;;27.26;43.71
71559;BME280;59382;43.852;25.952;2023-05-24T06:35:47;101031.75;;;27.31;43.32
71559;BME280;59382;43.852;25.952;2023-05-24T06:38:12;101024.53;;;27.44;43.22
71559;BME280;59382;43.852;25.952;2023-05-24T06:40:38;101034.06;;;27.60;43.14
71559;BME280;59382;43.852;25.952;2023-05-24T06:43:04;101025.50;;;27.70;42.68
71559;BME280;59382;43.852;25.952;2023-05-24T06:45:29;101032.34;;;27.94;42.49
71559;BME280;59382;43.852;25.952;2023-05-24T06:47:55;101021.41;;;27.98;42.22
71559;BME280;59382;43.852;25.952;2023-05-24T06:50:21;101033.47;;;28.24;42.21
71559;BME280;59382;43.852;25.952;2023-05-24T06:52:47;101041.16;;;28.35;41.65
71559;BME280;59382;43.852;25.952;2023-05-24T06:55:12;101024.66;;;28.30;41.19
71559;BME280;59382;43.852;25.952;2023-05-24T06:57:38;101020.75;;;28.31;41.15
71559;BME280;59382;43.852;25.952;2023-05-24T07:00:05;101024.38;;;28.40;40.67
71559;BME280;59382;43.852;25.952;2023-05-24T07:02:35;101018.25;;;28.21;40.67
71559;BME280;59382;43.852;25.952;2023-05-24T07:05:01;101015.22;;;28.01;40.74
71559;BME280;59382;43.852;25.952;2023-05-24T07:07:26;101022.09;;;28.03;40.66
71559;BME280;59382;43.852;25.952;2023-05-24T07:09:52;101023.34;;;28.28;40.43
71559;BME280;59382;43.852;25.952;2023-05-24T07:12:17;101017.81;;;28.36;40.09
71559;BME280;59382;43.852;25.952;2023-05-24T07:14:43;100994.56;;;28.15;40.11
71559;BME280;59382;43.852;25.952;2023-05-24T07:17:09;101013.72;;;28.25;40.35
71559;BME280;59382;43.852;25.952;2023-05-24T07:19:34;101018.03;;;28.48;40.10
71559;BME280;59382;43.852;25.952;2023-05-24T07:22:00;101005.50;;;28.59;40.12
71559;BME280;59382;43.852;25.952;2023-05-24T07:24:26;101026.28;;;28.88;39.71
71559;BME280;59382;43.852;25.952;2023-05-24T07:26:52;101020.25;;;29.03;39.51
71559;BME280;59382;43.852;25.952;2023-05-24T07:29:18;101014.38;;;29.21;38.94
71559;BME280;59382;43.852;25.952;2023-05-24T07:31:44;101019.75;;;29.35;39.00
71559;BME280;59382;43.852;25.952;2023-05-24T07:34:09;101020.75;;;29.39;39.00
71559;BME280;59382;43.852;25.952;2023-05-24T07:36:35;101021.06;;;29.46;38.61
71559;BME280;59382;43.852;25.952;2023-05-24T07:39:01;101019.75;;;29.52;38.59
71559;BME280;59382;43.852;25.952;2023-05-24T07:41:28;101011.56;;;29.47;38.59
71559;BME280;59382;43.852;25.952;2023-05-24T07:43:54;101012.72;;;29.46;38.55
71559;BME280;59382;43.852;25.952;2023-05-24T07:46:20;101024.00;;;29.58;38.56
71559;BME280;59382;43.852;25.952;2023-05-24T07:48:46;101025.94;;;29.66;38.05
71559;BME280;59382;43.852;25.952;2023-05-24T07:51:12;101023.97;;;29.75;37.71
71559;BME280;59382;43.852;25.952;2023-05-24T07:53:37;101011.72;;;29.67;37.82
71559;BME280;59382;43.852;25.952;2023-05-24T07:56:03;101030.31;;;29.84;37.72
71559;BME280;59382;43.852;25.952;2023-05-24T07:58:28;101025.63;;;29.76;37.38
71559;BME280;59382;43.852;25.952;2023-05-24T08:00:54;101036.88;;;29.79;36.98
71559;BME280;59382;43.852;25.952;2023-05-24T08:03:20;101018.28;;;29.71;35.81
71559;BME280;59382;43.852;25.952;2023-05-24T08:05:45;101029.22;;;29.51;35.35
71559;BME280;59382;43.852;25.952;2023-05-24T08:08:11;101006.84;;;29.30;35.54
71559;BME280;59382;43.852;25.952;2023-05-24T08:10:36;101031.53;;;29.49;35.42
71559;BME280;59382;43.852;25.952;2023-05-24T08:13:02;101035.59;;;29.60;34.97
71559;BME280;59382;43.852;25.952;2023-05-24T08:15:29;101029.06;;;29.64;34.35
71559;BME280;59382;43.852;25.952;2023-05-24T08:17:54;101022.03;;;29.67;34.58
71559;BME280;59382;43.852;25.952;2023-05-24T08:20:20;101031.50;;;29.74;34.61
71559;BME280;59382;43.852;25.952;2023-05-24T08:22:46;101033.47;;;29.74;34.80
71559;BME280;59382;43.852;25.952;2023-05-24T08:25:12;101031.84;;;29.73;34.80
71559;BME280;59382;43.852;25.952;2023-05-24T08:27:38;101029.19;;;29.76;35.22
71559;BME280;59382;43.852;25.952;2023-05-24T08:30:05;101033.31;;;29.79;35.19
71559;BME280;59382;43.852;25.952;2023-05-24T08:32:31;101035.44;;;29.82;35.64
71559;BME280;59382;43.852;25.952;2023-05-24T08:34:56;101031.19;;;29.76;35.26
71559;BME280;59382;43.852;25.952;2023-05-24T08:37:24;101033.97;;;29.76;35.22
71559;BME280;59382;43.852;25.952;2023-05-24T08:39:50;101029.22;;;29.68;35.70
71559;BME280;59382;43.852;25.952;2023-05-24T08:42:16;101030.53;;;29.79;35.38
71559;BME280;59382;43.852;25.952;2023-05-24T08:44:56;101029.84;;;29.82;34.78
71559;BME280;59382;43.852;25.952;2023-05-24T08:47:23;101041.28;;;29.89;35.12
71559;BME280;59382;43.852;25.952;2023-05-24T08:49:50;101035.06;;;29.92;35.12
71559;BME280;59382;43.852;25.952;2023-05-24T08:52:17;101034.41;;;29.95;34.92
71559;BME280;59382;43.852;25.952;2023-05-24T08:54:45;101031.28;;;29.96;34.78
71559;BME280;59382;43.852;25.952;2023-05-24T08:57:11;101026.38;;;29.93;34.54
71559;BME280;59382;43.852;25.952;2023-05-24T08:59:39;101024.28;;;29.82;34.16
71559;BME280;59382;43.852;25.952;2023-05-24T09:02:13;101032.00;;;29.68;34.51
71559;BME280;59382;43.852;25.952;2023-05-24T09:04:41;101027.59;;;29.50;34.65
71559;BME280;59382;43.852;25.952;2023-05-24T09:07:09;101019.44;;;29.28;35.23
71559;BME280;59382;43.852;25.952;2023-05-24T09:09:41;101033.66;;;29.35;35.48
71559;BME280;59382;43.852;25.952;2023-05-24T09:12:10;101039.53;;;29.59;35.05
71559;BME280;59382;43.852;25.952;2023-05-24T09:14:42;101022.03;;;29.50;34.52
71559;BME280;59382;43.852;25.952;2023-05-24T09:17:11;101001.47;;;29.34;34.79
71559;BME280;59382;43.852;25.952;2023-05-24T09:19:38;101026.94;;;29.53;34.44
71559;BME280;59382;43.852;25.952;2023-05-24T09:22:05;101037.75;;;29.63;34.62
71559;BME280;59382;43.852;25.952;2023-05-24T09:24:39;101026.75;;;29.75;34.22
71559;BME280;59382;43.852;25.952;2023-05-24T09:27:05;101030.16;;;29.89;33.85
71559;BME280;59382;43.852;25.952;2023-05-24T09:29:34;101031.63;;;29.95;33.38
71559;BME280;59382;43.852;25.952;2023-05-24T09:32:00;101022.09;;;29.96;33.82
71559;BME280;59382;43.852;25.952;2023-05-24T09:34:29;101021.94;;;30.01;33.66
71559;BME280;59382;43.852;25.952;2023-05-24T09:37:02;101025.34;;;30.06;33.87
71559;BME280;59382;43.852;25.952;2023-05-24T09:39:27;101024.84;;;30.13;33.42
71559;BME280;59382;43.852;25.952;2023-05-24T09:41:53;101021.03;;;30.26;33.44
71559;BME280;59382;43.852;25.952;2023-05-24T09:44:25;101028.72;;;30.29;33.10
71559;BME280;59382;43.852;25.952;2023-05-24T09:47:03;101025.44;;;30.27;33.01
71559;BME280;59382;43.852;25.952;2023-05-24T09:49:30;101019.31;;;30.42;33.28
71559;BME280;59382;43.852;25.952;2023-05-24T09:51:55;101013.53;;;30.47;33.06
71559;BME280;59382;43.852;25.952;2023-05-24T09:54:23;101010.44;;;30.49;32.43
71559;BME280;59382;43.852;25.952;2023-05-24T09:56:50;100996.53;;;30.40;32.45
71559;BME280;59382;43.852;25.952;2023-05-24T09:59:15;101016.91;;;30.32;32.78
71559;BME280;59382;43.852;25.952;2023-05-24T10:01:41;101000.44;;;30.18;32.58
71559;BME280;59382;43.852;25.952;2023-05-24T10:04:07;101010.41;;;30.11;32.70
71559;BME280;59382;43.852;25.952;2023-05-24T10:06:35;100986.44;;;29.89;32.39
71559;BME280;59382;43.852;25.952;2023-05-24T10:09:04;101004.75;;;29.99;32.81
71559;BME280;59382;43.852;25.952;2023-05-24T10:11:35;100997.22;;;29.91;32.23
71559;BME280;59382;43.852;25.952;2023-05-24T10:14:07;100991.56;;;29.79;32.16
71559;BME280;59382;43.852;25.952;2023-05-24T10:16:34;100985.69;;;29.72;32.29
71559;BME280;59382;43.852;25.952;2023-05-24T10:19:04;100985.06;;;29.66;32.51
71559;BME280;59382;43.852;25.952;2023-05-24T10:21:31;100991.91;;;29.69;32.92
71559;BME280;59382;43.852;25.952;2023-05-24T10:24:02;100999.25;;;29.73;33.00
71559;BME280;59382;43.852;25.952;2023-05-24T10:26:31;100992.91;;;29.73;32.85
71559;BME280;59382;43.852;25.952;2023-05-24T10:29:03;100982.44;;;29.70;33.05
71559;BME280;59382;43.852;25.952;2023-05-24T10:31:36;100992.03;;;29.81;32.69
71559;BME280;59382;43.852;25.952;2023-05-24T10:34:04;100972.44;;;29.77;32.83
71559;BME280;59382;43.852;25.952;2023-05-24T10:36:31;100994.81;;;29.81;32.69
71559;BME280;59382;43.852;25.952;2023-05-24T10:38:58;100974.72;;;29.58;32.58
71559;BME280;59382;43.852;25.952;2023-05-24T10:41:25;100982.13;;;29.63;32.74
71559;BME280;59382;43.852;25.952;2023-05-24T10:43:52;100976.88;;;29.53;32.56
71559;BME280;59382;43.852;25.952;2023-05-24T10:46:19;100948.47;;;29.30;32.67
71559;BME280;59382;43.852;25.952;2023-05-24T10:48:58;100964.47;;;29.42;32.76
71559;BME280;59382;43.852;25.952;2023-05-24T10:51:37;100957.13;;;29.46;32.73
71559;BME280;59382;43.852;25.952;2023-05-24T10:54:14;100951.22;;;29.47;32.83
71559;BME280;59382;43.852;25.952;2023-05-24T10:56:48;100955.47;;;29.53;33.15
71559;BME280;59382;43.852;25.952;2023-05-24T10:59:37;100945.97;;;29.54;33.15
71559;BME280;59382;43.852;25.952;2023-05-24T11:02:08;100954.47;;;29.66;33.15
71559;BME280;59382;43.852;25.952;2023-05-24T11:04:44;100956.91;;;29.68;33.35
71559;BME280;59382;43.852;25.952;2023-05-24T11:07:12;100945.31;;;29.57;33.08
71559;BME280;59382;43.852;25.952;2023-05-24T11:09:40;100956.75;;;29.64;33.07
71559;BME280;59382;43.852;25.952;2023-05-24T11:12:15;100941.56;;;29.45;33.52
71559;BME280;59382;43.852;25.952;2023-05-24T11:14:51;100939.47;;;29.33;33.63
71559;BME280;59382;43.852;25.952;2023-05-24T11:17:21;100957.28;;;29.41;33.70
71559;BME280;59382;43.852;25.952;2023-05-24T11:19:52;100945.19;;;29.37;33.87
71559;BME280;59382;43.852;25.952;2023-05-24T11:22:19;100947.47;;;29.35;34.00
71559;BME280;59382;43.852;25.952;2023-05-24T11:24:45;100934.91;;;29.29;33.71
71559;BME280;59382;43.852;25.952;2023-05-24T11:27:12;100938.34;;;29.26;33.74
71559;BME280;59382;43.852;25.952;2023-05-24T11:29:42;100928.06;;;29.18;33.87
71559;BME280;59382;43.852;25.952;2023-05-24T11:32:13;100935.09;;;29.24;34.07
71559;BME280;59382;43.852;25.952;2023-05-24T11:34:40;100933.13;;;29.16;33.72
71559;BME280;59382;43.852;25.952;2023-05-24T11:37:09;100914.66;;;28.94;34.28
71559;BME280;59382;43.852;25.952;2023-05-24T11:39:36;100919.09;;;28.87;34.42
71559;BME280;59382;43.852;25.952;2023-05-24T11:42:06;100927.25;;;28.92;34.56
71559;BME280;59382;43.852;25.952;2023-05-24T11:44:33;100909.94;;;28.86;34.25
71559;BME280;59382;43.852;25.952;2023-05-24T11:47:04;100910.94;;;28.82;34.34
71559;BME280;59382;43.852;25.952;2023-05-24T11:49:30;100904.22;;;28.83;34.37
71559;BME280;59382;43.852;25.952;2023-05-24T11:51:57;100909.47;;;28.93;34.38
71559;BME280;59382;43.852;25.952;2023-05-24T11:54:24;100913.34;;;29.00;34.53
71559;BME280;59382;43.852;25.952;2023-05-24T11:56:51;100916.50;;;29.07;34.85
71559;BME280;59382;43.852;25.952;2023-05-24T11:59:25;100893.09;;;29.00;34.59
71559;BME280;59382;43.852;25.952;2023-05-24T12:01:57;100908.94;;;29.08;34.76
71559;BME280;59382;43.852;25.952;2023-05-24T12:04:24;100902.25;;;29.09;34.79
71559;BME280;59382;43.852;25.952;2023-05-24T12:06:51;100898.66;;;29.08;34.62
71559;BME280;59382;43.852;25.952;2023-05-24T12:09:16;100891.28;;;29.04;34.73
71559;BME280;59382;43.852;25.952;2023-05-24T12:11:47;100890.97;;;28.97;34.57
71559;BME280;59382;43.852;25.952;2023-05-24T12:14:16;100866.00;;;28.88;34.78
71559;BME280;59382;43.852;25.952;2023-05-24T12:16:42;100879.56;;;28.90;34.25
71559;BME280;59382;43.852;25.952;2023-05-24T12:19:32;100887.69;;;28.95;34.42
71559;BME280;59382;43.852;25.952;2023-05-24T12:22:05;100865.97;;;28.80;34.69
71559;BME280;59382;43.852;25.952;2023-05-24T12:24:31;100885.44;;;28.80;34.55
71559;BME280;59382;43.852;25.952;2023-05-24T12:27:01;100885.28;;;28.76;34.42
71559;BME280;59382;43.852;25.952;2023-05-24T12:29:31;100875.31;;;28.67;34.23
71559;BME280;59382;43.852;25.952;2023-05-24T12:31:58;100874.66;;;28.70;34.20
71559;BME280;59382;43.852;25.952;2023-05-24T12:34:24;100862.41;;;28.62;33.97
71559;BME280;59382;43.852;25.952;2023-05-24T12:36:49;100871.38;;;28.67;34.11
71559;BME280;59382;43.852;25.952;2023-05-24T12:39:28;100880.03;;;28.66;34.06
71559;BME280;59382;43.852;25.952;2023-05-24T12:42:00;100869.94;;;28.53;33.81
71559;BME280;59382;43.852;25.952;2023-05-24T12:44:28;100870.22;;;28.43;33.92
71559;BME280;59382;43.852;25.952;2023-05-24T12:46:55;100866.94;;;28.32;34.36
71559;BME280;59382;43.852;25.952;2023-05-24T12:49:22;100871.69;;;28.32;34.11
71559;BME280;59382;43.852;25.952;2023-05-24T12:51:49;100872.00;;;28.30;33.83
71559;BME280;59382;43.852;25.952;2023-05-24T12:54:21;100873.66;;;28.31;33.61
71559;BME280;59382;43.852;25.952;2023-05-24T12:56:46;100848.50;;;28.19;33.56
71559;BME280;59382;43.852;25.952;2023-05-24T12:59:12;100867.28;;;28.39;33.42